createdAt,value
2019-03-22T00:00:05.118Z,5.31
2019-03-22T00:01:05.384Z,5.31
2019-03-22T00:02:05.447Z,5.31
2019-03-22T00:03:06.105Z,5.31
2019-03-22T00:04:05.990Z,5.25
2019-03-22T00:05:05.661Z,5.25
2019-03-22T00:06:05.917Z,5.25
2019-03-22T00:07:05.034Z,5.25
2019-03-22T00:08:05.390Z,5.25
2019-03-22T00:09:05.394Z,5.19
2019-03-22T00:10:05.538Z,5.25
2019-03-22T00:11:05.943Z,5.25
2019-03-22T00:12:06.008Z,5.19
2019-03-22T00:13:05.353Z,5.19
2019-03-22T00:14:06.177Z,5.19
2019-03-22T00:15:05.514Z,5.12
2019-03-22T00:16:06.009Z,5.12
2019-03-22T00:17:06.106Z,5.12
2019-03-22T00:18:05.129Z,5.12
2019-03-22T00:19:06.023Z,5.12
2019-03-22T00:20:06.001Z,5.12
2019-03-22T00:21:05.616Z,5.06
2019-03-22T00:22:05.121Z,5.06
2019-03-22T00:23:05.611Z,5.06
2019-03-22T00:24:05.851Z,5.06
2019-03-22T00:25:06.019Z,5.00
2019-03-22T00:26:05.036Z,5.00
2019-03-22T00:27:15.805Z,5.00
2019-03-22T00:28:05.191Z,5.00
2019-03-22T00:29:05.764Z,5.00
2019-03-22T00:30:05.272Z,4.94
2019-03-22T00:31:05.935Z,4.94
2019-03-22T00:32:05.997Z,4.94
2019-03-22T00:33:05.127Z,4.94
2019-03-22T00:34:05.701Z,4.94
2019-03-22T00:35:05.794Z,4.88
2019-03-22T00:36:05.921Z,4.88
2019-03-22T00:37:05.120Z,4.88
2019-03-22T00:38:05.535Z,4.88
2019-03-22T00:39:05.522Z,4.88
2019-03-22T00:40:05.915Z,4.81
2019-03-22T00:41:05.285Z,4.81
2019-03-22T00:42:06.030Z,4.75
2019-03-22T00:43:05.449Z,4.75
2019-03-22T00:44:05.852Z,4.81
2019-03-22T00:45:05.125Z,4.81
2019-03-22T00:46:05.829Z,4.81
2019-03-22T00:47:06.003Z,4.75
2019-03-22T00:48:05.107Z,4.69
2019-03-22T00:49:05.287Z,4.69
2019-03-22T00:50:05.559Z,4.69
2019-03-22T00:51:05.604Z,4.69
2019-03-22T00:52:05.363Z,4.69
2019-03-22T00:53:05.539Z,4.69
2019-03-22T00:54:05.041Z,4.62
2019-03-22T00:55:05.526Z,4.62
2019-03-22T00:56:05.829Z,4.62
2019-03-22T00:57:05.841Z,4.56
2019-03-22T00:58:05.038Z,4.56
2019-03-22T00:59:05.335Z,4.56
2019-03-22T01:00:05.609Z,4.56
2019-03-22T01:01:05.686Z,4.56
2019-03-22T01:02:05.373Z,4.56
2019-03-22T01:03:05.682Z,4.56
2019-03-22T01:04:05.839Z,4.50
2019-03-22T01:05:05.057Z,4.50
2019-03-22T01:06:05.297Z,4.50
2019-03-22T01:07:05.363Z,4.50
2019-03-22T01:08:05.926Z,4.50
2019-03-22T01:09:05.462Z,4.50
2019-03-22T01:10:05.502Z,4.50
2019-03-22T01:11:05.359Z,4.50
2019-03-22T01:12:05.686Z,4.50
2019-03-22T01:13:05.178Z,4.44
2019-03-22T01:14:05.613Z,4.44
2019-03-22T01:15:06.115Z,4.44
2019-03-22T01:16:06.078Z,4.44
2019-03-22T01:17:05.684Z,4.44
2019-03-22T01:18:05.944Z,4.44
2019-03-22T01:19:06.021Z,4.44
2019-03-22T01:20:05.584Z,4.44
2019-03-22T01:21:05.745Z,4.38
2019-03-22T01:22:05.026Z,4.38
2019-03-22T01:23:05.192Z,4.38
2019-03-22T01:24:05.603Z,4.31
2019-03-22T01:25:06.018Z,4.31
2019-03-22T01:26:05.121Z,4.31
2019-03-22T01:27:05.215Z,4.31
2019-03-22T01:28:05.770Z,4.31
2019-03-22T01:29:05.039Z,4.31
2019-03-22T01:30:05.353Z,4.31
2019-03-22T01:31:05.537Z,4.31
2019-03-22T01:32:05.597Z,4.31
2019-03-22T01:33:05.680Z,4.31
2019-03-22T01:34:05.340Z,4.25
2019-03-22T01:35:05.845Z,4.25
2019-03-22T01:36:06.020Z,4.19
2019-03-22T01:37:05.129Z,4.19
2019-03-22T01:38:05.776Z,4.19
2019-03-22T01:39:06.088Z,4.19
2019-03-22T01:40:05.205Z,4.19
2019-03-22T01:41:05.834Z,4.19
2019-03-22T01:42:05.762Z,4.19
2019-03-22T01:43:05.924Z,4.19
2019-03-22T01:44:05.037Z,4.19
2019-03-22T01:45:05.941Z,4.19
2019-03-22T01:46:05.918Z,4.19
2019-03-22T01:47:05.214Z,4.12
2019-03-22T01:48:05.593Z,4.12
2019-03-22T01:49:05.214Z,4.12
2019-03-22T01:50:05.204Z,4.12
2019-03-22T01:51:05.380Z,4.12
2019-03-22T01:52:06.061Z,4.12
2019-03-22T01:53:05.696Z,4.12
2019-03-22T01:54:05.113Z,4.12
2019-03-22T01:55:05.763Z,4.12
2019-03-22T01:56:05.671Z,4.06
2019-03-22T01:57:05.117Z,4.06
2019-03-22T01:58:05.931Z,4.06
2019-03-22T01:59:05.139Z,4.06
2019-03-22T02:00:05.831Z,4.06
2019-03-22T02:01:05.402Z,4.06
2019-03-22T02:02:05.453Z,4.06
2019-03-22T02:03:05.672Z,4.00
2019-03-22T02:04:05.048Z,4.00
2019-03-22T02:05:05.319Z,4.00
2019-03-22T02:06:05.919Z,4.00
2019-03-22T02:07:05.136Z,4.00
2019-03-22T02:08:05.683Z,4.00
2019-03-22T02:09:05.212Z,4.00
2019-03-22T02:10:05.274Z,4.00
2019-03-22T02:11:05.373Z,4.00
2019-03-22T02:12:05.455Z,3.94
2019-03-22T02:13:06.004Z,3.94
2019-03-22T02:14:05.200Z,3.94
2019-03-22T02:15:05.505Z,3.94
2019-03-22T02:16:05.529Z,3.94
2019-03-22T02:17:05.201Z,3.94
2019-03-22T02:18:05.602Z,3.94
2019-03-22T02:19:05.740Z,3.88
2019-03-22T02:20:06.043Z,3.88
2019-03-22T02:21:05.991Z,3.88
2019-03-22T02:22:05.613Z,3.88
2019-03-22T02:23:06.104Z,3.88
2019-03-22T02:24:05.134Z,3.88
2019-03-22T02:25:05.587Z,3.88
2019-03-22T02:26:05.130Z,3.88
2019-03-22T02:27:05.687Z,3.88
2019-03-22T02:28:05.912Z,3.88
2019-03-22T02:29:05.294Z,3.81
2019-03-22T02:30:05.666Z,3.81
2019-03-22T02:31:05.856Z,3.81
2019-03-22T02:32:05.027Z,3.81
2019-03-22T02:33:05.266Z,3.81
2019-03-22T02:34:06.096Z,3.75
2019-03-22T02:35:05.039Z,3.75
2019-03-22T02:36:05.587Z,3.75
2019-03-22T02:37:06.001Z,3.75
2019-03-22T02:38:05.318Z,3.75
2019-03-22T02:39:05.375Z,3.75
2019-03-22T02:40:05.613Z,3.75
2019-03-22T02:41:05.205Z,3.75
2019-03-22T02:42:05.681Z,3.69
2019-03-22T02:43:05.208Z,3.69
2019-03-22T02:44:05.204Z,3.69
2019-03-22T02:45:05.840Z,3.69
2019-03-22T02:46:05.147Z,3.69
2019-03-22T02:47:05.275Z,3.69
2019-03-22T02:48:05.768Z,3.69
2019-03-22T02:49:05.438Z,3.69
2019-03-22T02:50:17.075Z,3.69
2019-03-22T02:51:05.351Z,3.69
2019-03-22T02:52:05.545Z,3.69
2019-03-22T02:53:05.778Z,3.69
2019-03-22T02:54:05.687Z,3.69
2019-03-22T02:55:05.930Z,3.69
2019-03-22T02:56:05.964Z,3.69
2019-03-22T02:57:05.373Z,3.69
2019-03-22T02:58:19.612Z,3.69
2019-03-22T02:59:05.677Z,3.62
2019-03-22T03:00:05.865Z,3.62
2019-03-22T03:01:05.597Z,3.62
2019-03-22T03:02:05.707Z,3.62
2019-03-22T03:03:05.860Z,3.62
2019-03-22T03:04:05.382Z,3.62
2019-03-22T03:05:05.527Z,3.62
2019-03-22T03:06:05.132Z,3.62
2019-03-22T03:07:05.531Z,3.62
2019-03-22T03:08:05.165Z,3.62
2019-03-22T03:09:05.746Z,3.62
2019-03-22T03:10:06.098Z,3.62
2019-03-22T03:11:05.561Z,3.62
2019-03-22T03:12:05.207Z,3.62
2019-03-22T03:13:05.355Z,3.62
2019-03-22T03:14:05.059Z,3.62
2019-03-22T03:15:05.268Z,3.62
2019-03-22T03:16:05.626Z,3.62
2019-03-22T03:17:05.760Z,3.62
2019-03-22T03:18:05.436Z,3.62
2019-03-22T03:19:05.344Z,3.62
2019-03-22T03:20:05.851Z,3.62
2019-03-22T03:21:05.290Z,3.56
2019-03-22T03:22:05.446Z,3.56
2019-03-22T03:23:05.827Z,3.56
2019-03-22T03:24:05.528Z,3.56
2019-03-22T03:25:05.752Z,3.56
2019-03-22T03:26:05.206Z,3.56
2019-03-22T03:27:05.349Z,3.56
2019-03-22T03:28:05.151Z,3.56
2019-03-22T03:29:05.263Z,3.56
2019-03-22T03:30:05.443Z,3.56
2019-03-22T03:31:06.040Z,3.56
2019-03-22T03:32:05.219Z,3.56
2019-03-22T03:33:05.531Z,3.56
2019-03-22T03:34:06.744Z,3.56
2019-03-22T03:35:05.388Z,3.50
2019-03-22T03:36:05.372Z,3.50
2019-03-22T03:37:05.608Z,3.50
2019-03-22T03:38:06.095Z,3.50
2019-03-22T03:39:05.208Z,3.50
2019-03-22T03:40:05.363Z,3.50
2019-03-22T03:41:06.589Z,3.50
2019-03-22T03:42:05.949Z,3.50
2019-03-22T03:43:05.702Z,3.50
2019-03-22T03:44:05.125Z,3.50
2019-03-22T03:45:05.226Z,3.50
2019-03-22T03:46:05.587Z,3.50
2019-03-22T03:47:05.669Z,3.50
2019-03-22T03:48:05.227Z,3.50
2019-03-22T03:49:05.192Z,3.44
2019-03-22T03:50:05.368Z,3.44
2019-03-22T03:51:05.831Z,3.44
2019-03-22T03:52:06.079Z,3.44
2019-03-22T03:53:05.608Z,3.44
2019-03-22T03:54:05.935Z,3.44
2019-03-22T03:55:05.460Z,3.44
2019-03-22T03:56:05.461Z,3.44
2019-03-22T03:57:05.621Z,3.44
2019-03-22T03:58:05.203Z,3.44
2019-03-22T03:59:05.597Z,3.44
2019-03-22T04:00:05.352Z,3.44
2019-03-22T04:01:05.717Z,3.44
2019-03-22T04:02:05.714Z,3.38
2019-03-22T04:03:06.077Z,3.44
2019-03-22T04:04:05.391Z,3.38
2019-03-22T04:05:06.509Z,3.38
2019-03-22T04:06:05.913Z,3.38
2019-03-22T04:07:05.134Z,3.31
2019-03-22T04:08:07.129Z,3.31
2019-03-22T04:09:05.723Z,3.31
2019-03-22T04:10:05.470Z,3.31
2019-03-22T04:11:05.836Z,3.31
2019-03-22T04:12:05.519Z,3.31
2019-03-22T04:13:05.139Z,3.31
2019-03-22T04:14:05.690Z,3.31
2019-03-22T04:15:05.863Z,3.31
2019-03-22T04:16:05.909Z,3.31
2019-03-22T04:17:05.060Z,3.31
2019-03-22T04:18:05.676Z,3.31
2019-03-22T04:19:05.936Z,3.31
2019-03-22T04:20:05.693Z,3.31
2019-03-22T04:21:05.892Z,3.25
2019-03-22T04:22:05.924Z,3.25
2019-03-22T04:23:06.257Z,3.31
2019-03-22T04:24:05.135Z,3.31
2019-03-22T04:25:05.191Z,3.25
2019-03-22T04:26:05.532Z,3.25
2019-03-22T04:27:05.220Z,3.25
2019-03-22T04:28:05.440Z,3.25
2019-03-22T04:29:07.599Z,3.25
2019-03-22T04:30:05.286Z,3.25
2019-03-22T04:31:05.781Z,3.25
2019-03-22T04:32:05.943Z,3.25
2019-03-22T04:33:06.695Z,3.25
2019-03-22T04:34:05.583Z,3.19
2019-03-22T04:35:05.774Z,3.19
2019-03-22T04:36:05.432Z,3.19
2019-03-22T04:37:05.355Z,3.19
2019-03-22T04:38:05.863Z,3.19
2019-03-22T04:39:05.855Z,3.19
2019-03-22T04:40:06.005Z,3.19
2019-03-22T04:41:05.447Z,3.19
2019-03-22T04:42:05.671Z,3.19
2019-03-22T04:43:05.871Z,3.25
2019-03-22T04:44:05.278Z,3.25
2019-03-22T04:45:05.447Z,3.19
2019-03-22T04:46:05.595Z,3.19
2019-03-22T04:47:05.126Z,3.19
2019-03-22T04:48:05.286Z,3.19
2019-03-22T04:49:05.929Z,3.19
2019-03-22T04:50:05.356Z,3.19
2019-03-22T04:51:05.990Z,3.19
2019-03-22T04:52:05.447Z,3.19
2019-03-22T04:53:06.122Z,3.19
2019-03-22T04:54:05.047Z,3.19
2019-03-22T04:55:05.459Z,3.19
2019-03-22T04:56:05.507Z,3.19
2019-03-22T04:57:05.380Z,3.12
2019-03-22T04:58:05.429Z,3.12
2019-03-22T04:59:05.225Z,3.19
2019-03-22T05:00:05.531Z,3.19
2019-03-22T05:01:05.626Z,3.19
2019-03-22T05:02:05.195Z,3.19
2019-03-22T05:03:05.351Z,3.25
2019-03-22T05:04:05.768Z,3.25
2019-03-22T05:05:05.199Z,3.25
2019-03-22T05:06:05.878Z,3.25
2019-03-22T05:07:06.101Z,3.38
2019-03-22T05:08:05.459Z,3.50
2019-03-22T05:09:05.623Z,3.44
2019-03-22T05:10:05.221Z,3.50
2019-03-22T05:11:05.695Z,3.75
2019-03-22T05:12:06.184Z,3.94
2019-03-22T05:13:05.379Z,3.94
2019-03-22T05:14:05.522Z,3.94
2019-03-22T05:15:05.695Z,4.00
2019-03-22T05:16:05.294Z,3.94
2019-03-22T05:17:05.767Z,3.88
2019-03-22T05:18:05.189Z,3.81
2019-03-22T05:19:05.143Z,3.75
2019-03-22T05:20:05.761Z,3.75
2019-03-22T05:21:05.136Z,3.69
2019-03-22T05:22:05.624Z,3.62
2019-03-22T05:23:05.283Z,3.75
2019-03-22T05:24:05.690Z,3.88
2019-03-22T05:25:05.966Z,3.88
2019-03-22T05:26:06.262Z,3.94
2019-03-22T05:27:06.831Z,3.88
2019-03-22T05:28:05.285Z,3.81
2019-03-22T05:29:05.441Z,3.75
2019-03-22T05:30:05.694Z,3.75
2019-03-22T05:31:05.750Z,3.75
2019-03-22T05:32:06.013Z,4.00
2019-03-22T05:33:05.324Z,4.00
2019-03-22T05:34:05.683Z,4.00
2019-03-22T05:35:07.359Z,3.94
2019-03-22T05:36:06.010Z,3.88
2019-03-22T05:37:05.225Z,3.88
2019-03-22T05:38:05.369Z,3.88
2019-03-22T05:39:05.772Z,4.00
2019-03-22T05:40:05.110Z,4.00
2019-03-22T05:41:05.719Z,3.94
2019-03-22T05:42:05.849Z,3.94
2019-03-22T05:43:06.011Z,3.88
2019-03-22T05:44:05.126Z,3.88
2019-03-22T05:45:05.683Z,3.94
2019-03-22T05:46:05.192Z,4.12
2019-03-22T05:47:05.354Z,4.12
2019-03-22T05:48:05.695Z,4.06
2019-03-22T05:49:05.202Z,4.06
2019-03-22T05:50:05.782Z,4.06
2019-03-22T05:51:05.143Z,4.19
2019-03-22T05:52:05.829Z,4.31
2019-03-22T05:53:05.938Z,4.44
2019-03-22T05:54:05.432Z,4.38
2019-03-22T05:55:05.074Z,4.44
2019-03-22T05:56:05.704Z,4.50
2019-03-22T05:57:13.011Z,4.69
2019-03-22T05:58:05.371Z,4.69
2019-03-22T05:59:05.768Z,4.75
2019-03-22T06:00:06.168Z,4.88
2019-03-22T06:01:05.447Z,5.00
2019-03-22T06:02:09.132Z,5.06
2019-03-22T06:03:05.398Z,5.12
2019-03-22T06:04:06.015Z,5.25
2019-03-22T06:05:05.144Z,5.25
2019-03-22T06:06:05.622Z,5.19
2019-03-22T06:07:05.692Z,5.12
2019-03-22T06:08:05.934Z,5.06
2019-03-22T06:09:05.438Z,5.06
2019-03-22T06:10:05.838Z,5.00
2019-03-22T06:11:05.525Z,5.00
2019-03-22T06:12:05.929Z,5.06
2019-03-22T06:13:05.484Z,5.12
2019-03-22T06:14:05.797Z,5.19
2019-03-22T06:15:06.035Z,5.25
2019-03-22T06:16:05.207Z,5.31
2019-03-22T06:17:06.023Z,5.31
2019-03-22T06:18:05.207Z,5.31
2019-03-22T06:19:05.210Z,5.38
2019-03-22T06:20:05.922Z,5.44
2019-03-22T06:21:05.298Z,5.62
2019-03-22T06:22:06.070Z,5.81
2019-03-22T06:23:05.137Z,5.88
2019-03-22T06:24:05.443Z,5.94
2019-03-22T06:25:06.104Z,6.12
2019-03-22T06:26:06.237Z,6.25
2019-03-22T06:27:06.015Z,6.44
2019-03-22T06:28:05.659Z,6.50
2019-03-22T06:29:05.942Z,6.56
2019-03-22T06:30:05.200Z,6.56
2019-03-22T06:31:05.467Z,6.56
2019-03-22T06:32:05.296Z,6.62
2019-03-22T06:33:05.528Z,6.81
2019-03-22T06:34:05.368Z,7.06
2019-03-22T06:35:05.285Z,7.31
2019-03-22T06:36:05.133Z,7.38
2019-03-22T06:37:05.691Z,7.62
2019-03-22T06:38:05.115Z,7.81
2019-03-22T06:39:05.338Z,7.94
2019-03-22T06:40:05.362Z,8.06
2019-03-22T06:41:05.698Z,8.25
2019-03-22T06:42:05.921Z,8.31
2019-03-22T06:43:05.990Z,8.44
2019-03-22T06:44:05.675Z,8.44
2019-03-22T06:45:05.301Z,8.69
2019-03-22T06:46:05.199Z,8.88
2019-03-22T06:47:05.436Z,9.00
2019-03-22T06:48:05.677Z,9.12
2019-03-22T06:49:05.359Z,9.31
2019-03-22T06:50:05.401Z,9.50
2019-03-22T06:51:05.539Z,9.56
2019-03-22T06:52:06.449Z,9.69
2019-03-22T06:53:06.086Z,9.94
2019-03-22T06:54:06.169Z,10.19
2019-03-22T06:55:06.176Z,10.38
2019-03-22T06:56:05.851Z,10.56
2019-03-22T06:57:05.290Z,10.81
2019-03-22T06:58:05.375Z,10.94
2019-03-22T06:59:05.947Z,11.00
2019-03-22T07:00:07.009Z,11.12
2019-03-22T07:01:05.845Z,11.19
2019-03-22T07:02:05.688Z,11.38
2019-03-22T07:03:05.357Z,11.44
2019-03-22T07:04:05.611Z,11.56
2019-03-22T07:05:05.226Z,11.69
2019-03-22T07:06:05.370Z,11.81
2019-03-22T07:07:05.363Z,11.94
2019-03-22T07:08:05.518Z,12.06
2019-03-22T07:09:05.948Z,12.19
2019-03-22T07:10:06.110Z,12.25
2019-03-22T07:11:05.299Z,12.38
2019-03-22T07:12:05.756Z,12.50
2019-03-22T07:13:05.124Z,12.69
2019-03-22T07:14:05.773Z,13.00
2019-03-22T07:15:05.029Z,13.19
2019-03-22T07:16:05.692Z,13.44
2019-03-22T07:17:05.533Z,13.56
2019-03-22T07:18:05.542Z,13.62
2019-03-22T07:19:05.116Z,13.69
2019-03-22T07:20:05.394Z,13.75
2019-03-22T07:21:06.091Z,13.81
2019-03-22T07:22:05.386Z,13.94
2019-03-22T07:23:05.846Z,14.00
2019-03-22T07:24:05.639Z,14.06
2019-03-22T07:25:05.849Z,14.19
2019-03-22T07:26:06.003Z,14.25
2019-03-22T07:27:05.597Z,14.31
2019-03-22T07:28:06.094Z,14.38
2019-03-22T07:29:05.380Z,14.38
2019-03-22T07:30:17.591Z,14.62
2019-03-22T07:31:05.524Z,14.75
2019-03-22T07:32:05.850Z,14.81
2019-03-22T07:33:05.353Z,14.94
2019-03-22T07:34:06.900Z,15.12
2019-03-22T07:35:05.596Z,15.19
2019-03-22T07:36:05.202Z,15.19
2019-03-22T07:37:05.459Z,15.25
2019-03-22T07:38:05.603Z,15.25
2019-03-22T07:39:06.063Z,15.25
2019-03-22T07:40:05.375Z,15.31
2019-03-22T07:41:05.750Z,15.31
2019-03-22T07:42:05.307Z,15.38
2019-03-22T07:43:10.375Z,15.38
2019-03-22T07:44:05.129Z,15.75
2019-03-22T07:45:05.346Z,16.00
2019-03-22T07:46:05.608Z,16.19
2019-03-22T07:47:05.366Z,16.19
2019-03-22T07:48:05.955Z,16.12
2019-03-22T07:49:05.133Z,16.06
2019-03-22T07:50:05.475Z,16.06
2019-03-22T07:51:05.841Z,16.25
2019-03-22T07:52:06.017Z,16.25
2019-03-22T07:53:05.749Z,16.25
2019-03-22T07:54:06.024Z,16.25
2019-03-22T07:55:05.429Z,16.19
2019-03-22T07:56:05.607Z,16.25
2019-03-22T07:57:05.766Z,16.19
2019-03-22T07:58:06.078Z,16.25
2019-03-22T07:59:05.526Z,16.19
2019-03-22T08:00:05.705Z,16.31
2019-03-22T08:01:05.681Z,16.38
2019-03-22T08:02:05.927Z,16.56
2019-03-22T08:03:05.209Z,16.75
2019-03-22T08:04:05.576Z,16.62
2019-03-22T08:05:05.109Z,16.69
2019-03-22T08:06:05.671Z,16.75
2019-03-22T08:07:06.012Z,16.88
2019-03-22T08:08:05.307Z,16.94
2019-03-22T08:09:05.609Z,16.94
2019-03-22T08:10:05.634Z,16.88
2019-03-22T08:11:05.357Z,16.88
2019-03-22T08:12:06.120Z,16.81
2019-03-22T08:13:05.354Z,16.81
2019-03-22T08:14:05.548Z,16.81
2019-03-22T08:15:05.036Z,16.81
2019-03-22T08:16:05.213Z,16.81
2019-03-22T08:17:05.587Z,16.81
2019-03-22T08:18:05.771Z,16.81
2019-03-22T08:19:06.026Z,16.81
2019-03-22T08:20:05.299Z,16.94
2019-03-22T08:21:05.861Z,17.12
2019-03-22T08:22:05.959Z,17.25
2019-03-22T08:23:05.704Z,17.38
2019-03-22T08:24:05.162Z,17.44
2019-03-22T08:25:05.689Z,17.44
2019-03-22T08:26:05.202Z,17.44
2019-03-22T08:27:05.600Z,17.38
2019-03-22T08:28:05.687Z,17.38
2019-03-22T08:29:05.367Z,17.31
2019-03-22T08:30:05.468Z,17.31
2019-03-22T08:31:05.835Z,17.31
2019-03-22T08:32:05.450Z,17.31
2019-03-22T08:33:05.115Z,17.31
2019-03-22T08:34:05.292Z,17.31
2019-03-22T08:35:05.550Z,17.44
2019-03-22T08:36:05.762Z,17.56
2019-03-22T08:37:05.566Z,17.62
2019-03-22T08:38:06.096Z,17.75
2019-03-22T08:39:05.378Z,17.62
2019-03-22T08:40:05.387Z,17.62
2019-03-22T08:41:05.793Z,17.62
2019-03-22T08:42:05.479Z,17.69
2019-03-22T08:43:06.046Z,17.75
2019-03-22T08:44:05.361Z,17.75
2019-03-22T08:45:06.094Z,17.69
2019-03-22T08:46:06.007Z,17.62
2019-03-22T08:47:05.135Z,17.50
2019-03-22T08:48:05.480Z,17.44
2019-03-22T08:49:05.575Z,17.38
2019-03-22T08:50:05.301Z,17.31
2019-03-22T08:51:05.848Z,17.25
2019-03-22T08:52:06.099Z,17.19
2019-03-22T08:53:05.929Z,17.12
2019-03-22T08:54:06.110Z,17.12
2019-03-22T08:55:05.772Z,17.00
2019-03-22T08:56:05.949Z,17.00
2019-03-22T08:57:05.157Z,16.94
2019-03-22T08:58:05.451Z,16.94
2019-03-22T08:59:05.911Z,16.94
2019-03-22T09:00:05.451Z,16.94
2019-03-22T09:01:05.645Z,16.94
2019-03-22T09:02:08.125Z,16.94
2019-03-22T09:03:05.880Z,16.88
2019-03-22T09:04:05.533Z,16.88
2019-03-22T09:05:06.286Z,16.88
2019-03-22T09:06:07.736Z,16.88
2019-03-22T09:07:05.913Z,16.81
2019-03-22T09:08:06.051Z,16.81
2019-03-22T09:09:05.884Z,16.81
2019-03-22T09:10:06.004Z,16.75
2019-03-22T09:11:05.782Z,16.75
2019-03-22T09:12:05.839Z,16.69
2019-03-22T09:13:05.208Z,16.69
2019-03-22T09:14:05.695Z,16.69
2019-03-22T09:15:05.163Z,16.62
2019-03-22T09:16:05.425Z,16.62
2019-03-22T09:17:05.938Z,16.56
2019-03-22T09:18:05.040Z,16.56
2019-03-22T09:19:06.322Z,16.50
2019-03-22T09:20:05.461Z,16.50
2019-03-22T09:21:06.075Z,16.44
2019-03-22T09:22:05.274Z,16.44
2019-03-22T09:23:05.510Z,16.44
2019-03-22T09:24:06.024Z,16.38
2019-03-22T09:25:05.245Z,16.38
2019-03-22T09:26:05.393Z,16.56
2019-03-22T09:27:05.708Z,16.56
2019-03-22T09:28:05.858Z,16.50
2019-03-22T09:29:05.859Z,16.44
2019-03-22T09:30:06.019Z,16.44
2019-03-22T09:31:09.944Z,16.38
2019-03-22T09:32:05.872Z,16.38
2019-03-22T09:33:05.199Z,16.38
2019-03-22T09:34:05.964Z,16.31
2019-03-22T09:35:05.191Z,16.31
2019-03-22T09:36:05.778Z,16.31
2019-03-22T09:37:07.601Z,16.25
2019-03-22T09:38:12.567Z,16.25
2019-03-22T09:39:05.847Z,16.25
2019-03-22T09:40:08.383Z,16.25
2019-03-22T09:41:05.225Z,16.31
2019-03-22T09:42:05.407Z,16.62
2019-03-22T09:43:05.707Z,16.94
2019-03-22T09:44:05.543Z,17.06
2019-03-22T09:45:05.841Z,17.12
2019-03-22T09:46:05.943Z,17.25
2019-03-22T09:47:05.530Z,17.38
2019-03-22T09:48:06.207Z,17.31
2019-03-22T09:49:05.974Z,17.25
2019-03-22T09:50:05.343Z,17.19
2019-03-22T09:51:05.723Z,17.25
2019-03-22T09:52:05.219Z,17.44
2019-03-22T09:53:05.855Z,17.44
2019-03-22T09:54:05.502Z,17.56
2019-03-22T09:55:12.984Z,17.44
2019-03-22T09:56:05.785Z,17.31
2019-03-22T09:57:05.443Z,17.25
2019-03-22T09:58:05.757Z,17.38
2019-03-22T09:59:05.412Z,17.31
2019-03-22T10:00:05.942Z,17.19
2019-03-22T10:01:05.448Z,17.06
2019-03-22T10:02:05.598Z,17.00
2019-03-22T10:03:05.846Z,16.88
2019-03-22T10:04:05.155Z,16.81
2019-03-22T10:05:05.925Z,16.75
2019-03-22T10:06:06.053Z,16.75
2019-03-22T10:07:05.190Z,16.69
2019-03-22T10:08:06.032Z,16.62
2019-03-22T10:09:05.453Z,17.19
2019-03-22T10:10:05.982Z,17.56
2019-03-22T10:11:05.781Z,17.75
2019-03-22T10:12:05.054Z,17.75
2019-03-22T10:13:05.448Z,17.50
2019-03-22T10:14:05.920Z,17.38
2019-03-22T10:15:06.099Z,17.25
2019-03-22T10:16:05.210Z,17.19
2019-03-22T10:17:05.932Z,17.25
2019-03-22T10:18:05.415Z,17.44
2019-03-22T10:19:05.123Z,17.56
2019-03-22T10:20:05.185Z,17.44
2019-03-22T10:21:05.860Z,17.31
2019-03-22T10:22:05.236Z,17.19
2019-03-22T10:23:05.385Z,17.12
2019-03-22T10:24:05.558Z,17.06
2019-03-22T10:25:06.113Z,17.25
2019-03-22T10:26:05.885Z,17.44
2019-03-22T10:27:05.383Z,17.44
2019-03-22T10:28:06.139Z,17.31
2019-03-22T10:29:06.855Z,17.25
2019-03-22T10:30:05.881Z,17.19
2019-03-22T10:31:06.005Z,17.19
2019-03-22T10:32:05.375Z,17.12
2019-03-22T10:33:05.469Z,17.19
2019-03-22T10:34:05.736Z,17.38
2019-03-22T10:35:05.283Z,17.50
2019-03-22T10:36:05.754Z,17.44
2019-03-22T10:37:06.004Z,17.44
2019-03-22T10:38:14.355Z,17.44
2019-03-22T10:39:05.453Z,17.38
2019-03-22T10:40:05.529Z,17.31
2019-03-22T10:41:05.890Z,17.25
2019-03-22T10:42:06.030Z,17.19
2019-03-22T10:43:05.599Z,17.19
2019-03-22T10:44:05.310Z,17.12
2019-03-22T10:45:06.181Z,17.12
2019-03-22T10:46:07.804Z,17.12
2019-03-22T10:47:05.598Z,17.12
2019-03-22T10:48:05.311Z,17.06
2019-03-22T10:49:05.268Z,17.00
2019-03-22T10:50:05.556Z,17.00
2019-03-22T10:51:05.837Z,17.00
2019-03-22T10:52:05.389Z,17.00
2019-03-22T10:53:05.707Z,17.00
2019-03-22T10:54:05.107Z,17.00
2019-03-22T10:55:17.710Z,17.00
2019-03-22T10:56:05.764Z,16.94
2019-03-22T10:57:05.200Z,16.94
2019-03-22T10:58:19.685Z,16.88
2019-03-22T10:59:05.442Z,16.88
2019-03-22T11:00:05.451Z,16.94
2019-03-22T11:01:08.109Z,16.94
2019-03-22T11:02:07.741Z,16.94
2019-03-22T11:03:05.584Z,16.94
2019-03-22T11:05:05.215Z,17.00
2019-03-22T11:06:05.457Z,17.00
2019-03-22T11:07:05.692Z,17.00
2019-03-22T11:08:05.777Z,17.00
2019-03-22T11:09:05.830Z,16.94
2019-03-22T11:10:05.129Z,16.94
2019-03-22T11:11:05.268Z,16.94
2019-03-22T11:12:11.833Z,16.94
2019-03-22T11:13:05.198Z,17.00
2019-03-22T11:14:05.352Z,16.94
2019-03-22T11:15:05.588Z,16.94
2019-03-22T11:16:05.445Z,16.88
2019-03-22T11:17:05.606Z,16.88
2019-03-22T11:18:06.005Z,16.88
2019-03-22T11:19:05.455Z,16.88
2019-03-22T11:20:05.044Z,16.88
2019-03-22T11:21:05.737Z,16.81
2019-03-22T11:22:05.386Z,16.88
2019-03-22T11:23:05.445Z,16.94
2019-03-22T11:24:05.525Z,16.94
2019-03-22T11:25:05.614Z,16.94
2019-03-22T11:26:05.307Z,16.94
2019-03-22T11:27:05.518Z,17.00
2019-03-22T11:28:05.208Z,17.06
2019-03-22T11:29:05.361Z,17.06
2019-03-22T11:30:05.929Z,17.06
2019-03-22T11:31:05.325Z,17.00
2019-03-22T11:32:12.433Z,17.00
2019-03-22T11:33:05.372Z,17.00
2019-03-22T11:34:05.529Z,17.00
2019-03-22T11:35:05.346Z,17.06
2019-03-22T11:36:05.671Z,17.06
2019-03-22T11:37:07.710Z,17.06
2019-03-22T11:38:05.779Z,17.06
2019-03-22T11:39:14.893Z,17.12
2019-03-22T11:40:05.276Z,17.12
2019-03-22T11:41:05.778Z,17.12
2019-03-22T11:42:05.131Z,17.19
2019-03-22T11:43:08.768Z,17.19
2019-03-22T11:44:05.617Z,17.25
2019-03-22T11:45:05.780Z,17.25
2019-03-22T11:46:05.124Z,17.31
2019-03-22T11:47:05.288Z,17.31
2019-03-22T11:48:05.539Z,17.38
2019-03-22T11:49:05.641Z,17.38
2019-03-22T11:50:05.938Z,17.38
2019-03-22T11:51:05.382Z,17.38
2019-03-22T11:52:05.707Z,17.38
2019-03-22T11:53:05.222Z,17.31
2019-03-22T11:54:05.805Z,17.38
2019-03-22T11:55:05.874Z,17.38
2019-03-22T11:56:06.091Z,17.44
2019-03-22T11:57:05.432Z,17.44
2019-03-22T11:58:05.525Z,17.44
2019-03-22T11:59:05.869Z,17.44
2019-03-22T12:00:05.929Z,17.44
2019-03-22T12:01:05.359Z,17.44
2019-03-22T12:02:05.447Z,17.44
2019-03-22T12:03:05.756Z,17.44
2019-03-22T12:04:06.184Z,17.44
2019-03-22T12:05:05.516Z,17.38
2019-03-22T12:06:05.134Z,17.44
2019-03-22T12:07:05.287Z,17.38
2019-03-22T12:08:05.474Z,17.44
2019-03-22T12:09:05.438Z,17.44
2019-03-22T12:10:06.093Z,17.44
2019-03-22T12:11:05.484Z,17.44
2019-03-22T12:12:05.766Z,17.38
2019-03-22T12:13:05.937Z,17.38
2019-03-22T12:14:05.123Z,17.38
2019-03-22T12:15:05.686Z,17.44
2019-03-22T12:16:05.771Z,17.50
2019-03-22T12:17:05.919Z,17.50
2019-03-22T12:18:05.050Z,17.56
2019-03-22T12:19:05.697Z,17.56
2019-03-22T12:20:05.791Z,17.56
2019-03-22T12:21:05.908Z,17.62
2019-03-22T12:22:05.054Z,17.69
2019-03-22T12:23:05.127Z,17.69
2019-03-22T12:24:05.513Z,17.75
2019-03-22T12:25:05.756Z,17.75
2019-03-22T12:26:06.538Z,17.75
2019-03-22T12:27:05.210Z,17.75
2019-03-22T12:28:05.513Z,17.81
2019-03-22T12:29:05.207Z,17.81
2019-03-22T12:30:05.624Z,17.81
2019-03-22T12:31:05.996Z,17.75
2019-03-22T12:32:05.622Z,17.75
2019-03-22T12:33:05.616Z,17.75
2019-03-22T12:34:05.822Z,17.75
2019-03-22T12:35:05.509Z,17.81
2019-03-22T12:36:05.909Z,17.88
2019-03-22T12:37:05.366Z,17.81
2019-03-22T12:38:05.536Z,17.88
2019-03-22T12:39:05.783Z,17.88
2019-03-22T12:40:06.077Z,17.94
2019-03-22T12:41:05.617Z,17.94
2019-03-22T12:42:07.515Z,17.94
2019-03-22T12:43:05.219Z,18.00
2019-03-22T12:44:05.831Z,18.00
2019-03-22T12:45:06.187Z,18.00
2019-03-22T12:46:05.109Z,18.00
2019-03-22T12:47:05.383Z,18.00
2019-03-22T12:48:05.469Z,18.00
2019-03-22T12:49:05.755Z,18.00
2019-03-22T12:50:05.681Z,18.00
2019-03-22T12:51:05.949Z,18.00
2019-03-22T12:52:06.006Z,18.06
2019-03-22T12:53:05.612Z,18.06
2019-03-22T12:54:05.996Z,18.06
2019-03-22T12:55:05.134Z,18.00
2019-03-22T12:56:05.214Z,18.00
2019-03-22T12:57:05.447Z,18.00
2019-03-22T12:58:05.708Z,18.00
2019-03-22T12:59:05.944Z,17.94
2019-03-22T13:00:06.185Z,18.06
2019-03-22T13:01:05.208Z,18.19
2019-03-22T13:02:05.770Z,18.38
2019-03-22T13:03:06.103Z,18.50
2019-03-22T13:04:05.215Z,18.38
2019-03-22T13:05:05.734Z,18.38
2019-03-22T13:06:05.852Z,18.31
2019-03-22T13:07:06.085Z,18.31